createdAt,value
2022-10-13T00:01:40.756Z,1014.879
2022-10-13T00:06:43.469Z,1014.833
2022-10-13T00:11:46.091Z,1014.881
2022-10-13T00:16:48.694Z,1014.779
2022-10-13T00:21:51.294Z,1014.77
2022-10-13T00:26:53.860Z,1014.658
2022-10-13T00:31:56.413Z,1014.686
2022-10-13T00:36:58.894Z,1014.677
2022-10-13T00:42:01.470Z,1014.606
2022-10-13T00:47:04.177Z,1014.65
2022-10-13T00:52:06.630Z,1014.651
2022-10-13T00:57:09.265Z,1014.578
2022-10-13T01:02:11.961Z,1014.664
2022-10-13T01:07:14.366Z,1014.61
2022-10-13T01:12:17.469Z,1014.597
2022-10-13T01:17:19.651Z,1014.567
2022-10-13T01:22:22.332Z,1014.567
2022-10-13T01:27:24.953Z,1014.484
2022-10-13T01:32:27.542Z,1014.479
2022-10-13T01:37:30.010Z,1014.439
2022-10-13T01:42:32.943Z,1014.354
2022-10-13T01:47:35.662Z,1014.321
2022-10-13T01:52:38.407Z,1014.296
2022-10-13T01:57:41.107Z,1014.239
2022-10-13T02:07:46.440Z,1014.143
2022-10-13T02:12:49.137Z,1014.035
2022-10-13T02:17:51.931Z,1013.988
2022-10-13T02:22:54.724Z,1013.984
2022-10-13T02:27:57.360Z,1013.968
2022-10-13T02:38:07.622Z,1013.865
2022-10-13T02:48:12.794Z,1013.772
2022-10-13T02:53:15.545Z,1013.711
2022-10-13T02:58:18.238Z,1013.745
2022-10-13T03:03:21.037Z,1013.718
2022-10-13T03:13:26.201Z,1013.678
2022-10-13T03:18:29.019Z,1013.562
2022-10-13T03:23:31.562Z,1013.599
2022-10-13T03:28:34.388Z,1013.637
2022-10-13T03:33:36.830Z,1013.63
2022-10-13T03:48:45.122Z,1013.455
2022-10-13T03:53:47.870Z,1013.441
2022-10-13T03:58:50.753Z,1013.354
2022-10-13T04:03:56.059Z,1013.322
2022-10-13T04:08:58.881Z,1013.344
2022-10-13T04:14:04.208Z,1013.305
2022-10-13T04:19:06.827Z,1013.353
2022-10-13T04:24:09.427Z,1013.372
2022-10-13T04:29:11.856Z,1013.285
2022-10-13T04:34:14.588Z,1013.206
2022-10-13T04:39:17.161Z,1013.184
2022-10-13T04:44:20.059Z,1013.166
2022-10-13T04:54:25.564Z,1013.121
2022-10-13T04:59:28.080Z,1013.015
2022-10-13T05:09:33.577Z,1013.113
2022-10-13T05:14:36.388Z,1012.994
2022-10-13T05:19:39.155Z,1012.967
2022-10-13T05:24:41.964Z,1012.959
2022-10-13T05:34:47.120Z,1012.94
2022-10-13T05:39:49.547Z,1012.944
2022-10-13T05:44:52.113Z,1012.859
2022-10-13T05:49:54.749Z,1012.805
2022-10-13T05:54:57.517Z,1012.859
2022-10-13T06:00:00.308Z,1012.882
2022-10-13T06:05:03.038Z,1012.864
2022-10-13T06:10:05.481Z,1012.887
2022-10-13T06:15:08.278Z,1012.872
2022-10-13T06:20:10.858Z,1012.895
2022-10-13T06:25:13.505Z,1012.886
2022-10-13T06:30:16.356Z,1012.895
2022-10-13T06:40:21.866Z,1012.914
2022-10-13T06:45:24.844Z,1012.887
2022-10-13T06:50:27.614Z,1012.901
2022-10-13T06:55:32.922Z,1012.878
2022-10-13T07:05:38.684Z,1012.827
2022-10-13T07:15:44.313Z,1012.79
2022-10-13T07:20:47.266Z,1012.631
2022-10-13T07:25:52.681Z,1012.614
2022-10-13T07:36:01.051Z,1012.517
2022-10-13T07:41:03.606Z,1012.566
2022-10-13T07:46:06.473Z,1012.521
2022-10-13T07:56:12.457Z,1012.468
2022-10-13T08:01:15.341Z,1012.475
2022-10-13T08:11:20.886Z,1012.422
2022-10-13T08:16:23.493Z,1012.367
2022-10-13T08:26:29.237Z,1012.317
2022-10-13T08:31:31.992Z,1012.263
2022-10-13T08:36:34.805Z,1012.344
2022-10-13T08:41:37.511Z,1012.296
2022-10-13T08:51:43.424Z,1012.167
2022-10-13T08:56:46.203Z,1012.123
2022-10-13T09:01:52.007Z,1012.062
2022-10-13T09:06:54.797Z,1012.042
2022-10-13T09:11:57.496Z,1012.002
2022-10-13T09:22:02.858Z,1012.028
2022-10-13T09:27:05.715Z,1012.07
2022-10-13T09:32:08.683Z,1012.132
2022-10-13T09:37:11.538Z,1012.115
2022-10-13T09:42:14.329Z,1012.108
2022-10-13T09:47:17.068Z,1012.138
2022-10-13T09:52:20.077Z,1012.168
2022-10-13T10:02:26.609Z,1012.091
2022-10-13T10:07:28.250Z,1012.114
2022-10-13T10:12:30.941Z,1012.067
2022-10-13T10:17:36.568Z,1011.969
2022-10-13T10:22:39.225Z,1011.983
2022-10-13T10:27:43.531Z,1011.85
2022-10-13T10:32:44.759Z,1011.82
2022-10-13T10:42:52.234Z,1011.688
2022-10-13T10:47:52.968Z,1011.662
2022-10-13T10:52:55.623Z,1011.632
2022-10-13T10:57:58.500Z,1011.529
2022-10-13T11:03:01.513Z,1011.416
2022-10-13T11:08:04.306Z,1011.381
2022-10-13T11:13:07.010Z,1011.298
2022-10-13T11:18:09.572Z,1011.317
2022-10-13T11:23:11.997Z,1011.262
2022-10-13T11:28:14.739Z,1011.258
2022-10-13T11:33:17.241Z,1011.224
2022-10-13T11:43:22.470Z,1011.109
2022-10-13T11:48:25.604Z,1010.958
2022-10-13T11:58:31.094Z,1010.895
2022-10-13T12:08:36.883Z,1010.737
2022-10-13T12:13:39.489Z,1010.721
2022-10-13T12:18:42.200Z,1010.739
2022-10-13T12:28:47.742Z,1010.785
2022-10-13T12:33:50.305Z,1010.708
2022-10-13T12:38:53.105Z,1010.786
2022-10-13T12:43:55.776Z,1010.81
2022-10-13T12:48:58.291Z,1010.883
2022-10-13T12:59:03.581Z,1010.797
2022-10-13T13:04:11.062Z,1010.833
2022-10-13T13:09:13.832Z,1010.786
2022-10-13T13:19:19.388Z,1010.763
2022-10-13T13:24:35.790Z,1010.77
2022-10-13T13:29:25.295Z,1010.753
2022-10-13T13:34:28.230Z,1010.654
2022-10-13T13:39:30.995Z,1010.628
2022-10-13T13:44:33.683Z,1010.537
2022-10-13T13:49:36.324Z,1010.452
2022-10-13T13:59:42.277Z,1010.432
2022-10-13T14:04:45.113Z,1010.393
2022-10-13T14:09:47.796Z,1010.34
2022-10-13T14:14:50.457Z,1010.219
2022-10-13T14:19:53.538Z,1010.183
2022-10-13T14:24:55.968Z,1010.188
2022-10-13T14:29:58.556Z,1010.189
2022-10-13T14:35:01.349Z,1010.176
2022-10-13T14:40:03.705Z,1010.184
2022-10-13T14:45:06.373Z,1010.108
2022-10-13T14:50:09.117Z,1010.092
2022-10-13T14:55:11.733Z,1009.985
2022-10-13T15:00:14.439Z,1009.999
2022-10-13T15:05:17.167Z,1010.004
2022-10-13T15:10:19.761Z,1009.979
2022-10-13T15:15:25.230Z,1010.034
2022-10-13T15:20:28.071Z,1010.094
2022-10-13T15:25:30.944Z,1010.071
2022-10-13T15:30:33.511Z,1010.122
2022-10-13T15:35:36.020Z,1010.163
2022-10-13T15:40:38.711Z,1010.112
2022-10-13T15:45:41.528Z,1010.136
2022-10-13T15:50:44.118Z,1010.156
2022-10-13T15:55:46.697Z,1010.16
2022-10-13T16:00:49.352Z,1010.16
2022-10-13T16:05:51.927Z,1010.169
2022-10-13T16:10:54.580Z,1010.203
2022-10-13T16:15:57.260Z,1010.166
2022-10-13T16:20:59.781Z,1010.132
2022-10-13T16:26:02.326Z,1010.128
2022-10-13T16:31:05.028Z,1010.162
2022-10-13T16:36:07.631Z,1010.065
2022-10-13T16:41:10.134Z,1010.088
2022-10-13T16:46:12.898Z,1010.095
2022-10-13T16:51:15.358Z,1010.033
2022-10-13T16:56:17.940Z,1010.013
2022-10-13T17:01:20.553Z,1010.03
2022-10-13T17:06:23.303Z,1010.028
2022-10-13T17:11:25.856Z,1010.009
2022-10-13T17:16:28.433Z,1009.987
2022-10-13T17:21:30.912Z,1009.941
2022-10-13T17:26:33.601Z,1009.948
2022-10-13T17:31:36.002Z,1009.969
2022-10-13T17:36:38.716Z,1009.955
2022-10-13T17:41:41.528Z,1010.018
2022-10-13T17:46:44.749Z,1010.018
2022-10-13T17:51:47.139Z,1010.034
2022-10-13T17:56:49.678Z,1009.936
2022-10-13T18:01:52.219Z,1009.913
2022-10-13T18:06:54.796Z,1009.907
2022-10-13T18:11:57.462Z,1009.946
2022-10-13T18:17:00.230Z,1009.877
2022-10-13T18:22:02.752Z,1009.862
2022-10-13T18:27:05.316Z,1009.814
2022-10-13T18:32:08.077Z,1009.827
2022-10-13T18:37:10.817Z,1009.771
2022-10-13T18:42:13.604Z,1009.747
2022-10-13T18:47:16.063Z,1009.761
2022-10-13T18:52:18.773Z,1009.773
2022-10-13T18:57:21.464Z,1009.73
2022-10-13T19:02:24.069Z,1009.672
2022-10-13T19:07:26.889Z,1009.743
2022-10-13T19:12:29.413Z,1009.731
2022-10-13T19:17:32.167Z,1009.735
2022-10-13T19:22:34.848Z,1009.662
2022-10-13T19:27:37.540Z,1009.654
2022-10-13T19:32:40.207Z,1009.652
2022-10-13T19:37:43.285Z,1009.668
2022-10-13T19:42:45.701Z,1009.65
2022-10-13T19:47:48.437Z,1009.62
2022-10-13T19:52:51.168Z,1009.611
2022-10-13T19:57:53.808Z,1009.637
2022-10-13T20:02:56.555Z,1009.657
2022-10-13T20:07:59.224Z,1009.691
2022-10-13T20:13:01.718Z,1009.649
2022-10-13T20:23:07.253Z,1009.65
2022-10-13T20:28:10.063Z,1009.671
2022-10-13T20:33:12.936Z,1009.68
2022-10-13T20:38:15.693Z,1009.615
2022-10-13T20:43:21.199Z,1009.596
2022-10-13T20:53:23.616Z,1009.536
2022-10-13T20:58:26.480Z,1009.597
2022-10-13T21:08:32.041Z,1009.542
2022-10-13T21:13:34.592Z,1009.569
2022-10-13T21:18:37.358Z,1009.627
2022-10-13T21:23:39.917Z,1009.603
2022-10-13T21:28:42.728Z,1009.518
2022-10-13T21:33:45.235Z,1009.531
2022-10-13T21:38:47.801Z,1009.515
2022-10-13T21:43:50.577Z,1009.563
2022-10-13T21:48:53.300Z,1009.553
2022-10-13T21:53:55.883Z,1009.62
2022-10-13T21:58:58.628Z,1009.653
2022-10-13T22:04:01.293Z,1009.669
2022-10-13T22:09:04.093Z,1009.659
2022-10-13T22:14:06.809Z,1009.645
2022-10-13T22:19:10.185Z,1009.576
2022-10-13T22:24:12.484Z,1009.589
2022-10-13T22:29:15.072Z,1009.588
2022-10-13T22:34:17.696Z,1009.564
2022-10-13T22:39:20.377Z,1009.546
2022-10-13T22:44:23.009Z,1009.54
2022-10-13T22:49:25.839Z,1009.515
2022-10-13T22:54:28.535Z,1009.468
2022-10-13T23:04:33.929Z,1009.378
2022-10-13T23:09:36.886Z,1009.368
2022-10-13T23:14:39.424Z,1009.375
2022-10-13T23:19:47.903Z,1009.316
2022-10-13T23:24:50.597Z,1009.299
2022-10-13T23:29:53.161Z,1009.287
2022-10-13T23:34:55.856Z,1009.249
2022-10-13T23:39:58.737Z,1009.288
2022-10-13T23:45:01.214Z,1009.267
2022-10-13T23:50:06.489Z,1009.309
2022-10-13T23:55:09.219Z,1009.311
